Time;durP1;ratioP1;P1;durP2;ratioP2;P2;SDS_P1;SDS_P2;PMS_P1;PMS_P2;Temp;Humidity;BMP_temperature;BMP_pressure;BME280_temperature;BME280_humidity;BME280_pressure;Samples;Min_cycle;Max_cycle;Signal;HPM_P1;HPM_P2
2022/12/16 00:00:19;;;;;;;25.58;19.85;;;;;;;-2.77;100.00;100996.00;5157718;27;20023;-36
2022/12/16 00:02:45;;;;;;;31.30;21.73;;;;;;;-2.74;100.00;101009.75;5156060;27;20466;-36
2022/12/16 00:05:10;;;;;;;29.47;21.70;;;;;;;-2.72;100.00;100994.59;5155868;27;20111;-35
2022/12/16 00:07:35;;;;;;;34.33;24.23;;;;;;;-2.89;100.00;101005.88;5157460;27;20029;-36
2022/12/16 00:10:01;;;;;;;26.70;20.23;;;;;;;-2.82;100.00;101000.88;5157100;27;20026;-36
2022/12/16 00:12:26;;;;;;;34.70;22.98;;;;;;;-2.90;100.00;101009.50;5156972;27;20046;-36
2022/12/16 00:14:52;;;;;;;29.10;21.13;;;;;;;-2.94;100.00;100986.94;5156960;27;20122;-36
2022/12/16 00:17:17;;;;;;;32.07;21.20;;;;;;;-2.78;100.00;101011.03;5157426;27;20027;-36
2022/12/16 00:19:42;;;;;;;27.60;20.50;;;;;;;-2.76;100.00;101006.44;5157535;27;20328;-36
2022/12/16 00:22:08;;;;;;;31.60;23.50;;;;;;;-2.76;100.00;101010.91;5155888;27;20023;-36
2022/12/16 00:24:33;;;;;;;29.13;21.83;;;;;;;-2.70;100.00;101013.81;5157531;27;20054;-36
2022/12/16 00:26:59;;;;;;;29.07;21.87;;;;;;;-2.67;100.00;100997.66;5157112;27;20076;-36
2022/12/16 00:29:24;;;;;;;33.40;21.80;;;;;;;-2.62;100.00;101002.53;5156762;27;20063;-35
2022/12/16 00:31:50;;;;;;;27.87;20.63;;;;;;;-2.43;100.00;100999.84;5155457;27;20046;-36
2022/12/16 00:34:16;;;;;;;26.10;20.43;;;;;;;-2.30;100.00;100998.69;5156985;27;20038;-36
2022/12/16 00:36:42;;;;;;;27.88;21.35;;;;;;;-2.29;100.00;101005.66;5156597;27;20027;-36
2022/12/16 00:39:07;;;;;;;;;;;;;;;-2.18;100.00;101003.69;5158196;27;20342;-36
2022/12/16 00:41:33;;;;;;;25.73;18.98;;;;;;;-2.15;100.00;100999.88;5157221;27;19911;-36
2022/12/16 00:43:58;;;;;;;26.83;19.53;;;;;;;-2.08;100.00;100996.53;5157040;27;20023;-36
2022/12/16 00:46:23;;;;;;;29.57;21.43;;;;;;;-2.06;100.00;101004.31;5157453;27;20026;-35
2022/12/16 00:48:49;;;;;;;26.53;20.27;;;;;;;-1.87;100.00;100995.47;5156719;27;20351;-36
2022/12/16 00:51:14;;;;;;;27.97;21.80;;;;;;;-1.85;100.00;101007.59;5157185;27;20029;-36
2022/12/16 00:53:40;;;;;;;28.53;19.47;;;;;;;-1.75;100.00;101012.88;5155784;27;20037;-36
2022/12/16 00:56:10;;;;;;;24.10;18.63;;;;;;;-1.75;100.00;101007.56;5156546;27;20496;-36
2022/12/16 00:58:36;;;;;;;27.15;20.10;;;;;;;-1.71;100.00;101010.72;5156830;27;20379;-36
2022/12/16 01:01:03;;;;;;;30.70;20.75;;;;;;;-1.66;100.00;101011.13;5155104;27;20027;-36
2022/12/16 01:03:28;;;;;;;29.38;21.65;;;;;;;-1.73;100.00;101002.09;5156708;27;20034;-36
2022/12/16 01:05:53;;;;;;;27.00;20.37;;;;;;;-1.69;100.00;101012.25;5156338;27;20348;-36
2022/12/16 01:08:19;;;;;;;27.50;21.63;;;;;;;-1.80;100.00;101011.63;5155833;27;20262;-36
2022/12/16 01:10:55;;;;;;;27.33;20.35;;;;;;;-1.60;100.00;101015.84;5155401;27;20030;-36
2022/12/16 01:13:23;;;;;;;31.10;22.27;;;;;;;-1.71;100.00;101016.03;5156305;27;20038;-36
2022/12/16 01:15:49;;;;;;;26.77;20.77;;;;;;;-1.55;100.00;101016.25;5155749;27;20431;-36
2022/12/16 01:18:14;;;;;;;26.65;20.08;;;;;;;-1.64;100.00;100998.56;5155842;27;20022;-36
2022/12/16 01:20:40;;;;;;;25.98;20.35;;;;;;;-1.46;100.00;101022.47;5155929;27;20110;-35
2022/12/16 01:23:05;;;;;;;25.47;20.00;;;;;;;-1.46;100.00;101015.38;5156587;27;20087;-35
2022/12/16 01:25:30;;;;;;;39.47;22.13;;;;;;;-1.59;100.00;101025.47;5155694;27;20034;-35
2022/12/16 01:27:56;;;;;;;26.20;20.13;;;;;;;-1.53;100.00;101038.13;5156005;27;20051;-35
2022/12/16 01:30:22;;;;;;;25.07;19.60;;;;;;;-1.53;100.00;101039.97;5154553;27;20054;-35
2022/12/16 01:32:47;;;;;;;25.52;19.02;;;;;;;-1.42;100.00;101032.63;5156486;27;20604;-35
2022/12/16 01:35:13;;;;;;;28.20;21.13;;;;;;;-1.36;100.00;101041.84;5155739;27;20026;-35
2022/12/16 01:37:38;;;;;;;24.60;19.40;;;;;;;-1.25;100.00;101044.28;5155804;27;20105;-35
2022/12/16 01:40:05;;;;;;;23.87;18.80;;;;;;;-1.15;100.00;101052.16;5155729;27;20025;-35
2022/12/16 01:42:32;;;;;;;27.67;21.23;;;;;;;-1.35;100.00;101038.19;5155797;27;20434;-35
2022/12/16 01:45:23;;;;;;;24.50;19.60;;;;;;;-1.18;100.00;101053.28;5155872;27;20038;-36
2022/12/16 01:47:50;;;;;;;29.95;21.33;;;;;;;-1.27;100.00;101051.53;5155679;27;20030;-36
2022/12/16 01:50:18;;;;;;;23.58;18.60;;;;;;;-1.06;100.00;101052.09;5154685;27;20039;-36
2022/12/16 01:52:48;;;;;;;24.65;19.73;;;;;;;-1.01;100.00;101054.31;5155696;27;20489;-36
2022/12/16 01:55:25;;;;;;;27.05;20.27;;;;;;;-0.97;100.00;101049.53;5154078;27;20034;-36
2022/12/16 01:57:58;;;;;;;25.27;19.27;;;;;;;-0.97;100.00;101057.50;5155269;27;20022;-36
2022/12/16 02:00:23;;;;;;;29.40;21.27;;;;;;;-1.03;100.00;101053.59;5155783;27;20033;-35
2022/12/16 02:02:50;;;;;;;24.65;19.55;;;;;;;-0.97;100.00;101066.31;5155007;27;20042;-35
2022/12/16 02:05:22;;;;;;;29.48;21.42;;;;;;;-1.27;100.00;101056.84;5155348;27;20022;-36
2022/12/16 02:08:05;;;;;;;27.55;21.02;;;;;;;-1.14;100.00;101064.44;5155316;27;20026;-36
2022/12/16 02:11:15;;;;;;;25.73;19.10;;;;;;;-1.10;100.00;101074.63;5155519;27;20118;-36
2022/12/16 02:14:03;;;;;;;24.70;18.58;;;;;;;-1.15;100.00;101066.28;5154907;27;20551;-36
2022/12/16 02:16:32;;;;;;;28.77;20.40;;;;;;;-1.21;100.00;101071.34;5155161;27;20027;-36
2022/12/16 02:19:24;;;;;;;24.15;18.58;;;;;;;-1.02;100.00;101081.84;5155617;27;20036;-36
2022/12/16 02:22:20;;;;;;;25.50;18.75;;;;;;;-0.98;100.00;101091.16;5155473;27;20041;-36
2022/12/16 02:24:55;;;;;;;23.35;18.40;;;;;;;-0.97;100.00;101092.84;5154957;27;20439;-36
2022/12/16 02:27:50;;;;;;;27.45;19.67;;;;;;;-1.06;100.00;101091.09;5155105;27;20034;-36
2022/12/16 02:30:37;;;;;;;24.15;19.23;;;;;;;-1.02;100.00;101089.81;5155522;27;20049;-36
2022/12/16 02:33:30;;;;;;;24.38;18.58;;;;;;;-0.96;100.00;101080.41;5154776;27;20030;-36
2022/12/16 02:36:07;;;;;;;25.15;18.23;;;;;;;-0.95;100.00;101088.22;5155802;27;20159;-36
2022/12/16 02:38:42;;;;;;;25.98;20.38;;;;;;;-1.02;100.00;101087.16;5155690;27;20027;-36
2022/12/16 02:41:19;;;;;;;27.58;19.95;;;;;;;-0.99;100.00;101089.50;5154784;27;20118;-36
2022/12/16 02:43:47;;;;;;;26.30;20.20;;;;;;;-0.90;100.00;101093.91;5154864;27;20474;-36
2022/12/16 02:46:13;;;;;;;28.70;21.75;;;;;;;-1.05;100.00;101090.94;5155269;27;20473;-36
2022/12/16 02:48:38;;;;;;;24.65;19.25;;;;;;;-0.95;100.00;101096.19;5154011;27;20095;-36
2022/12/16 02:51:04;;;;;;;24.87;18.97;;;;;;;-0.89;100.00;101079.63;5153180;27;20069;-36
2022/12/16 02:53:35;;;;;;;27.07;21.10;;;;;;;-0.93;100.00;101096.84;5153592;27;20736;-36
2022/12/16 02:56:28;;;;;;;26.05;19.85;;;;;;;-0.89;100.00;101100.03;5154720;27;20027;-36
2022/12/16 02:59:15;;;;;;;26.55;19.83;;;;;;;-0.83;100.00;101100.28;5154914;27;20150;-36
2022/12/16 03:02:05;;;;;;;27.02;19.58;;;;;;;-0.80;100.00;101102.63;5154533;27;20431;-36
2022/12/16 03:04:36;;;;;;;27.33;20.25;;;;;;;-0.79;100.00;101098.97;5155153;27;20041;-36
2022/12/16 03:07:06;;;;;;;24.52;19.50;;;;;;;-0.82;100.00;101086.03;5136870;27;20053;-36
2022/12/16 03:09:35;;;;;;;31.88;22.27;;;;;;;-0.89;100.00;101090.25;5155178;27;20447;-36
2022/12/16 03:12:06;;;;;;;26.70;19.75;;;;;;;-0.79;100.00;101101.63;5153696;27;20099;-36
2022/12/16 03:14:36;;;;;;;26.88;19.75;;;;;;;-0.71;100.00;101103.56;5155098;27;20050;-36
2022/12/16 03:17:03;;;;;;;23.80;19.67;;;;;;;-0.60;100.00;101099.84;5154467;27;20027;-36
2022/12/16 03:19:29;;;;;;;30.45;20.42;;;;;;;-0.70;100.00;101099.06;5154510;27;20399;-36
2022/12/16 03:22:02;;;;;;;26.30;20.52;;;;;;;-0.67;100.00;101102.28;5154138;27;20129;-37
2022/12/16 03:24:28;;;;;;;31.02;21.85;;;;;;;-0.81;100.00;101100.97;5154818;27;20037;-36
2022/12/16 03:27:06;;;;;;;26.85;18.98;;;;;;;-0.74;100.00;101097.69;5154075;27;20027;-36
2022/12/16 03:29:49;;;;;;;24.40;19.35;;;;;;;-0.69;100.00;101106.06;5154413;27;20066;-36
2022/12/16 03:32:23;;;;;;;25.70;19.77;;;;;;;-0.63;100.00;101110.78;5153951;27;20042;-36
2022/12/16 03:35:00;;;;;;;31.23;20.85;;;;;;;-0.64;100.00;101120.53;5154944;27;20086;-36
2022/12/16 03:37:31;;;;;;;25.48;19.65;;;;;;;-0.68;100.00;101113.88;5156393;27;20031;-36
2022/12/16 03:39:59;;;;;;;27.40;21.48;;;;;;;-0.77;100.00;101116.63;5157975;27;20026;-36
2022/12/16 03:42:25;;;;;;;24.65;20.27;;;;;;;-0.75;100.00;101126.09;5158322;27;20027;-36
2022/12/16 03:44:50;;;;;;;26.98;21.13;;;;;;;-0.70;100.00;101136.25;5158677;27;20427;-36
2022/12/16 03:47:16;;;;;;;27.17;21.97;;;;;;;-0.73;100.00;101131.22;5156611;27;20019;-36
2022/12/16 03:49:41;;;;;;;26.80;20.20;;;;;;;-0.85;100.00;101110.22;5157588;27;20667;-36
2022/12/16 03:52:07;;;;;;;26.93;19.63;;;;;;;-0.67;100.00;101135.97;5158074;27;20037;-36
2022/12/16 03:54:32;;;;;;;30.77;22.45;;;;;;;-0.69;100.00;101137.91;5158320;27;20083;-36
2022/12/16 03:56:57;;;;;;;25.77;20.20;;;;;;;-0.60;100.00;101139.69;5157600;27;20031;-36
2022/12/16 03:59:23;;;;;;;25.47;20.57;;;;;;;-0.65;100.00;101131.31;5158182;27;20023;-36
2022/12/16 04:01:49;;;;;;;27.63;20.73;;;;;;;-0.67;100.00;101125.34;5157468;27;20072;-36
2022/12/16 04:04:15;;;;;;;29.13;22.38;;;;;;;-0.65;100.00;101141.94;5156749;27;20091;-36
2022/12/16 04:06:40;;;;;;;28.95;21.55;;;;;;;-0.74;100.00;101137.53;5157697;27;20039;-36
2022/12/16 04:09:06;;;;;;;29.77;22.57;;;;;;;-0.70;100.00;101163.66;5157936;27;20029;-36
2022/12/16 04:25:31;;;;;;;27.13;21.33;;;;;;;-0.76;100.00;101153.63;5156865;27;20553;-36
2022/12/16 04:27:57;;;;;;;26.85;21.50;;;;;;;-0.77;100.00;101156.44;5157608;27;20034;-37
2022/12/16 04:30:23;;;;;;;31.10;21.50;;;;;;;-0.76;100.00;101163.41;5157790;27;20027;-36
